sensor_id;sensor_type;location;lat;lon;timestamp;pressure;altitude;pressure_sealevel;temperature;humidity
50652;BME280;66928;52.086;5.240;2023-05-02T05:23:41;102220.0;;;9.76;77.99
50652;BME280;66928;52.086;5.240;2023-05-02T05:26:53;102227.0;;;9.8;77.86
50652;BME280;66928;52.086;5.240;2023-05-02T05:28:29;102237.0;;;9.77;77.16
50652;BME280;66928;52.086;5.240;2023-05-02T05:30:06;102232.0;;;9.75;77.36
50652;BME280;66928;52.086;5.240;2023-05-02T05:33:18;102230.0;;;9.76;77.31
50652;BME280;66928;52.086;5.240;2023-05-02T05:34:55;102234.0;;;9.89;76.83
50652;BME280;66928;52.086;5.240;2023-05-02T05:36:31;102238.0;;;9.89;76.7
50652;BME280;66928;52.086;5.240;2023-05-02T05:39:43;102242.0;;;9.84;76.63
50652;BME280;66928;52.086;5.240;2023-05-02T05:41:21;102243.0;;;9.75;77.06
50652;BME280;66928;52.086;5.240;2023-05-02T05:42:56;102255.0;;;9.65;76.92
50652;BME280;66928;52.086;5.240;2023-05-02T05:44:33;102255.0;;;9.64;76.63
50652;BME280;66928;52.086;5.240;2023-05-02T05:47:45;102266.0;;;9.6;76.45
50652;BME280;66928;52.086;5.240;2023-05-02T05:49:21;102261.0;;;9.57;75.86
50652;BME280;66928;52.086;5.240;2023-05-02T05:51:02;102277.0;;;9.52;75.22
50652;BME280;66928;52.086;5.240;2023-05-02T05:54:15;102276.0;;;9.38;74.72
50652;BME280;66928;52.086;5.240;2023-05-02T05:55:52;102283.0;;;9.28;74.91
50652;BME280;66928;52.086;5.240;2023-05-02T05:57:28;102281.0;;;9.3;75.2
50652;BME280;66928;52.086;5.240;2023-05-02T06:00:40;102287.0;;;9.18;75.81
50652;BME280;66928;52.086;5.240;2023-05-02T06:02:17;102285.0;;;9.15;76.24
50652;BME280;66928;52.086;5.240;2023-05-02T06:03:53;102290.0;;;9.33;75.58
50652;BME280;66928;52.086;5.240;2023-05-02T06:05:29;102293.0;;;9.26;75.91
50652;BME280;66928;52.086;5.240;2023-05-02T06:08:42;102297.0;;;9.36;75.61
50652;BME280;66928;52.086;5.240;2023-05-02T06:10:18;102300.0;;;9.47;75.2
50652;BME280;66928;52.086;5.240;2023-05-02T06:11:55;102300.0;;;9.57;74.91
50652;BME280;66928;52.086;5.240;2023-05-02T06:15:07;102305.0;;;9.44;74.42
50652;BME280;66928;52.086;5.240;2023-05-02T06:16:43;102307.0;;;9.6;74.03
50652;BME280;66928;52.086;5.240;2023-05-02T06:18:19;102319.0;;;9.68;73.13
50652;BME280;66928;52.086;5.240;2023-05-02T06:21:32;102314.0;;;9.64;72.74
50652;BME280;66928;52.086;5.240;2023-05-02T06:23:08;102315.0;;;9.77;72.88
50652;BME280;66928;52.086;5.240;2023-05-02T06:24:44;102333.0;;;9.86;72.42
50652;BME280;66928;52.086;5.240;2023-05-02T06:27:56;102330.0;;;9.76;71.8
50652;BME280;66928;52.086;5.240;2023-05-02T06:29:33;102325.0;;;9.8;71.49
50652;BME280;66928;52.086;5.240;2023-05-02T06:31:09;102324.0;;;9.98;70.97
50652;BME280;66928;52.086;5.240;2023-05-02T06:32:45;102333.0;;;10.02;70.19
50652;BME280;66928;52.086;5.240;2023-05-02T06:35:58;102335.0;;;10.05;69.91
50652;BME280;66928;52.086;5.240;2023-05-02T06:37:34;102331.0;;;9.99;69.95
50652;BME280;66928;52.086;5.240;2023-05-02T06:39:10;102333.0;;;10.06;69.74
50652;BME280;66928;52.086;5.240;2023-05-02T06:42:23;102331.0;;;9.99;69.64
50652;BME280;66928;52.086;5.240;2023-05-02T06:43:59;102337.0;;;10.1;68.95
50652;BME280;66928;52.086;5.240;2023-05-02T06:48:47;102347.0;;;10.24;67.58
50652;BME280;66928;52.086;5.240;2023-05-02T06:50:24;102351.0;;;10.22;67.58
50652;BME280;66928;52.086;5.240;2023-05-02T06:52:00;102360.0;;;10.28;67.02
50652;BME280;66928;52.086;5.240;2023-05-02T06:53:36;102364.0;;;10.07;67.36
50652;BME280;66928;52.086;5.240;2023-05-02T06:56:48;102373.0;;;10.27;66.66
50652;BME280;66928;52.086;5.240;2023-05-02T06:58:25;102376.0;;;10.15;66.8
50652;BME280;66928;52.086;5.240;2023-05-02T07:00:01;102378.0;;;10.18;67.19
50652;BME280;66928;52.086;5.240;2023-05-02T07:03:13;102384.0;;;10.22;67.52
50652;BME280;66928;52.086;5.240;2023-05-02T07:04:49;102388.0;;;10.17;67.05
50652;BME280;66928;52.086;5.240;2023-05-02T07:06:25;102384.0;;;10.06;66.88
50652;BME280;66928;52.086;5.240;2023-05-02T07:09:39;102400.0;;;9.96;67.73
50652;BME280;66928;52.086;5.240;2023-05-02T07:11:15;102406.0;;;9.81;68.5
50652;BME280;66928;52.086;5.240;2023-05-02T07:12:51;102400.0;;;9.64;69.66
50652;BME280;66928;52.086;5.240;2023-05-02T07:16:04;102417.0;;;9.63;70.36
50652;BME280;66928;52.086;5.240;2023-05-02T07:17:43;102408.0;;;9.64;71.0
50652;BME280;66928;52.086;5.240;2023-05-02T07:19:19;102406.0;;;9.78;71.11
50652;BME280;66928;52.086;5.240;2023-05-02T07:20:55;102408.0;;;9.8;71.44
50652;BME280;66928;52.086;5.240;2023-05-02T07:24:07;102413.00000000001;;;9.88;71.03
50652;BME280;66928;52.086;5.240;2023-05-02T07:25:43;102431.0;;;9.69;70.98
50652;BME280;66928;52.086;5.240;2023-05-02T07:27:20;102409.99999999999;;;9.66;71.16
50652;BME280;66928;52.086;5.240;2023-05-02T07:30:32;102416.00000000001;;;9.73;70.94
50652;BME280;66928;52.086;5.240;2023-05-02T07:32:08;102429.0;;;9.56;70.91
50652;BME280;66928;52.086;5.240;2023-05-02T07:33:44;102419.0;;;9.47;71.2
50652;BME280;66928;52.086;5.240;2023-05-02T07:36:57;102442.0;;;9.48;71.58
50652;BME280;66928;52.086;5.240;2023-05-02T07:38:34;102423.0;;;9.51;72.38
50652;BME280;66928;52.086;5.240;2023-05-02T07:40:10;102452.0;;;9.32;72.7
50652;BME280;66928;52.086;5.240;2023-05-02T07:41:46;102442.0;;;9.4;72.72
50652;BME280;66928;52.086;5.240;2023-05-02T07:44:58;102436.99999999999;;;9.35;72.2
50652;BME280;66928;52.086;5.240;2023-05-02T07:46:34;102438.00000000001;;;9.36;71.72
50652;BME280;66928;52.086;5.240;2023-05-02T07:48:11;102445.0;;;9.38;71.5
50652;BME280;66928;52.086;5.240;2023-05-02T07:51:25;102432.0;;;9.34;71.73
50652;BME280;66928;52.086;5.240;2023-05-02T07:53:01;102443.0;;;9.36;71.52
50652;BME280;66928;52.086;5.240;2023-05-02T07:54:37;102443.0;;;9.47;71.0
50652;BME280;66928;52.086;5.240;2023-05-02T07:57:50;102444.0;;;9.48;70.86
50652;BME280;66928;52.086;5.240;2023-05-02T07:59:26;102449.0;;;9.46;70.58
50652;BME280;66928;52.086;5.240;2023-05-02T08:01:02;102453.0;;;9.5;70.31
50652;BME280;66928;52.086;5.240;2023-05-02T08:02:40;102458.99999999999;;;9.42;70.24
50652;BME280;66928;52.086;5.240;2023-05-02T08:05:53;102455.0;;;9.6;69.91
50652;BME280;66928;52.086;5.240;2023-05-02T08:07:30;102454.0;;;9.68;69.52
50652;BME280;66928;52.086;5.240;2023-05-02T08:09:07;102455.0;;;9.81;68.98
50652;BME280;66928;52.086;5.240;2023-05-02T08:12:19;102463.00000000001;;;9.97;68.45
50652;BME280;66928;52.086;5.240;2023-05-02T08:13:56;102459.99999999999;;;9.93;67.34
50652;BME280;66928;52.086;5.240;2023-05-02T08:15:32;102459.99999999999;;;9.82;66.56
50652;BME280;66928;52.086;5.240;2023-05-02T08:18:44;102464.00000000001;;;9.81;66.3
50652;BME280;66928;52.086;5.240;2023-05-02T08:20:20;102474.0;;;9.88;66.34
50652;BME280;66928;52.086;5.240;2023-05-02T08:21:57;102476.0;;;9.81;66.31
50652;BME280;66928;52.086;5.240;2023-05-02T08:23:34;102477.0;;;9.73;65.8
50652;BME280;66928;52.086;5.240;2023-05-02T08:26:45;102475.0;;;9.73;66.19
50652;BME280;66928;52.086;5.240;2023-05-02T08:28:21;102498.0;;;9.65;66.16
50652;BME280;66928;52.086;5.240;2023-05-02T08:29:57;102483.0;;;9.69;65.91
50652;BME280;66928;52.086;5.240;2023-05-02T08:33:10;102483.99999999999;;;9.61;65.55
50652;BME280;66928;52.086;5.240;2023-05-02T08:34:46;102488.00000000001;;;9.63;65.7
50652;BME280;66928;52.086;5.240;2023-05-02T08:36:23;102493.0;;;9.65;65.28
50652;BME280;66928;52.086;5.240;2023-05-02T08:39:35;102497.0;;;9.72;64.77
50652;BME280;66928;52.086;5.240;2023-05-02T08:41:13;102498.0;;;9.83;64.44
50652;BME280;66928;52.086;5.240;2023-05-02T08:42:50;102495.0;;;9.85;63.72
50652;BME280;66928;52.086;5.240;2023-05-02T08:44:27;102501.0;;;9.9;63.73
50652;BME280;66928;52.086;5.240;2023-05-02T08:47:41;102502.0;;;10.03;63.03
50652;BME280;66928;52.086;5.240;2023-05-02T08:49:18;102497.0;;;10.21;62.66
50652;BME280;66928;52.086;5.240;2023-05-02T08:50:56;102504.0;;;10.14;62.29
50652;BME280;66928;52.086;5.240;2023-05-02T08:54:15;102498.0;;;10.26;61.46
50652;BME280;66928;52.086;5.240;2023-05-02T08:55:52;102506.0;;;10.24;60.77
50652;BME280;66928;52.086;5.240;2023-05-02T08:57:28;102507.0;;;10.1;60.63
50652;BME280;66928;52.086;5.240;2023-05-02T09:00:41;102508.0;;;10.08;60.58
50652;BME280;66928;52.086;5.240;2023-05-02T09:02:27;102508.0;;;10.11;60.56
50652;BME280;66928;52.086;5.240;2023-05-02T09:04:30;102508.99999999999;;;10.15;60.46
50652;BME280;66928;52.086;5.240;2023-05-02T09:06:10;102513.00000000001;;;10.22;59.54
50652;BME280;66928;52.086;5.240;2023-05-02T09:07:50;102513.00000000001;;;10.23;59.93
50652;BME280;66928;52.086;5.240;2023-05-02T09:11:03;102517.0;;;10.45;59.68
50652;BME280;66928;52.086;5.240;2023-05-02T09:12:40;102518.0;;;10.44;58.7
50652;BME280;66928;52.086;5.240;2023-05-02T09:14:16;102518.0;;;10.49;58.45
50652;BME280;66928;52.086;5.240;2023-05-02T09:15:56;102519.0;;;10.53;58.57
50652;BME280;66928;52.086;5.240;2023-05-02T09:19:23;102518.0;;;10.57;57.75
50652;BME280;66928;52.086;5.240;2023-05-02T09:21:03;102517.0;;;10.66;56.2
50652;BME280;66928;52.086;5.240;2023-05-02T09:22:47;102507.0;;;10.85;54.05
50652;BME280;66928;52.086;5.240;2023-05-02T09:24:24;102528.0;;;10.79;52.48
50652;BME280;66928;52.086;5.240;2023-05-02T09:27:54;102524.0;;;10.77;52.86
50652;BME280;66928;52.086;5.240;2023-05-02T09:29:31;102527.0;;;10.93;52.05
50652;BME280;66928;52.086;5.240;2023-05-02T09:31:10;102531.0;;;11.05;51.69
50652;BME280;66928;52.086;5.240;2023-05-02T09:32:48;102528.0;;;11.09;51.22
50652;BME280;66928;52.086;5.240;2023-05-02T09:36:02;102532.0;;;11.16;51.13
50652;BME280;66928;52.086;5.240;2023-05-02T09:37:39;102534.99999999999;;;11.15;51.39
50652;BME280;66928;52.086;5.240;2023-05-02T09:39:16;102540.00000000001;;;11.23;51.07
50652;BME280;66928;52.086;5.240;2023-05-02T09:40:56;102539.00000000001;;;11.19;51.56
50652;BME280;66928;52.086;5.240;2023-05-02T09:44:09;102539.00000000001;;;11.45;50.28
50652;BME280;66928;52.086;5.240;2023-05-02T09:45:55;102538.00000000001;;;11.44;50.52
50652;BME280;66928;52.086;5.240;2023-05-02T09:47:32;102542.0;;;11.26;49.93
50652;BME280;66928;52.086;5.240;2023-05-02T09:50:44;102557.0;;;11.18;49.75
50652;BME280;66928;52.086;5.240;2023-05-02T09:52:20;102549.0;;;11.25;49.45
50652;BME280;66928;52.086;5.240;2023-05-02T09:53:56;102549.0;;;11.23;49.1
50652;BME280;66928;52.086;5.240;2023-05-02T09:57:09;102548.0;;;11.14;48.84
50652;BME280;66928;52.086;5.240;2023-05-02T09:58:45;102548.0;;;11.32;48.4
50652;BME280;66928;52.086;5.240;2023-05-02T10:00:21;102549.0;;;11.49;48.16
50652;BME280;66928;52.086;5.240;2023-05-02T10:01:58;102540.00000000001;;;11.73;47.37
50652;BME280;66928;52.086;5.240;2023-05-02T10:05:16;102540.00000000001;;;11.58;47.83
50652;BME280;66928;52.086;5.240;2023-05-02T10:06:54;102545.0;;;11.88;46.83
50652;BME280;66928;52.086;5.240;2023-05-02T10:08:32;102546.0;;;11.75;46.15
50652;BME280;66928;52.086;5.240;2023-05-02T10:11:51;102546.0;;;11.72;46.4
50652;BME280;66928;52.086;5.240;2023-05-02T10:13:31;102553.0;;;11.7;45.9
50652;BME280;66928;52.086;5.240;2023-05-02T10:15:09;102554.0;;;11.56;46.12
50652;BME280;66928;52.086;5.240;2023-05-02T10:16:54;102556.0;;;11.26;46.42
50652;BME280;66928;52.086;5.240;2023-05-02T10:18:40;102564.00000000001;;;11.53;45.99
50652;BME280;66928;52.086;5.240;2023-05-02T10:22:00;102558.99999999999;;;11.61;45.32
50652;BME280;66928;52.086;5.240;2023-05-02T10:23:41;102552.0;;;11.83;44.81
50652;BME280;66928;52.086;5.240;2023-05-02T10:25:18;102565.00000000001;;;11.95;44.99
50652;BME280;66928;52.086;5.240;2023-05-02T10:28:31;102568.0;;;11.98;45.82
50652;BME280;66928;52.086;5.240;2023-05-02T10:30:09;102570.0;;;11.51;46.95
50652;BME280;66928;52.086;5.240;2023-05-02T10:31:48;102565.00000000001;;;11.52;47.11
50652;BME280;66928;52.086;5.240;2023-05-02T10:33:25;102573.0;;;11.38;47.4
50652;BME280;66928;52.086;5.240;2023-05-02T10:36:40;102567.0;;;11.43;47.4
50652;BME280;66928;52.086;5.240;2023-05-02T10:38:19;102555.0;;;11.6;47.01
50652;BME280;66928;52.086;5.240;2023-05-02T10:39:55;102549.0;;;11.63;46.83
50652;BME280;66928;52.086;5.240;2023-05-02T10:43:14;102565.00000000001;;;11.61;46.17
50652;BME280;66928;52.086;5.240;2023-05-02T10:44:50;102577.0;;;11.53;45.84
50652;BME280;66928;52.086;5.240;2023-05-02T10:46:30;102570.0;;;11.42;45.72
50652;BME280;66928;52.086;5.240;2023-05-02T10:48:16;102567.0;;;11.63;45.45
50652;BME280;66928;52.086;5.240;2023-05-02T10:51:33;102567.0;;;11.77;44.52
50652;BME280;66928;52.086;5.240;2023-05-02T10:53:21;102559.99999999999;;;11.86;44.83
50652;BME280;66928;52.086;5.240;2023-05-02T10:55:15;102566.00000000001;;;12.07;44.16
50652;BME280;66928;52.086;5.240;2023-05-02T10:57:02;102569.0;;;12.04;43.96
50652;BME280;66928;52.086;5.240;2023-05-02T10:58:42;102578.0;;;11.9;44.19
50652;BME280;66928;52.086;5.240;2023-05-02T11:01:57;102575.0;;;11.72;44.64
50652;BME280;66928;52.086;5.240;2023-05-02T11:04:07;102579.0;;;11.55;44.85
50652;BME280;66928;52.086;5.240;2023-05-02T11:06:16;102579.0;;;11.8;44.41
50652;BME280;66928;52.086;5.240;2023-05-02T11:08:29;102578.0;;;11.69;44.24
50652;BME280;66928;52.086;5.240;2023-05-02T11:10:37;102570.0;;;11.8;44.31
50652;BME280;66928;52.086;5.240;2023-05-02T11:12:42;102574.0;;;11.79;43.95
50652;BME280;66928;52.086;5.240;2023-05-02T11:14:42;102580.0;;;11.73;43.82
50652;BME280;66928;52.086;5.240;2023-05-02T11:16:19;102575.0;;;11.38;43.7
50652;BME280;66928;52.086;5.240;2023-05-02T11:17:58;102575.0;;;11.82;43.73
50652;BME280;66928;52.086;5.240;2023-05-02T11:22:30;102590.00000000001;;;11.89;43.41
50652;BME280;66928;52.086;5.240;2023-05-02T11:24:39;102589.00000000001;;;11.86;43.11
50652;BME280;66928;52.086;5.240;2023-05-02T11:26:20;102601.0;;;11.62;43.38
50652;BME280;66928;52.086;5.240;2023-05-02T11:27:59;102583.0;;;12.0;42.92
50652;BME280;66928;52.086;5.240;2023-05-02T11:32:00;102591.00000000001;;;11.97;42.9
50652;BME280;66928;52.086;5.240;2023-05-02T11:33:36;102586.99999999999;;;12.06;42.87
50652;BME280;66928;52.086;5.240;2023-05-02T11:35:14;102590.00000000001;;;12.02;42.43
50652;BME280;66928;52.086;5.240;2023-05-02T11:36:52;102582.0;;;11.98;42.7
50652;BME280;66928;52.086;5.240;2023-05-02T11:38:35;102592.0;;;11.92;42.51
50652;BME280;66928;52.086;5.240;2023-05-02T11:40:14;102590.00000000001;;;11.76;42.78
50652;BME280;66928;52.086;5.240;2023-05-02T11:43:27;102592.0;;;11.65;43.04
50652;BME280;66928;52.086;5.240;2023-05-02T11:45:04;102589.00000000001;;;11.77;43.68
50652;BME280;66928;52.086;5.240;2023-05-02T11:46:41;102594.0;;;11.84;42.52
50652;BME280;66928;52.086;5.240;2023-05-02T11:49:57;102583.0;;;11.96;41.91
50652;BME280;66928;52.086;5.240;2023-05-02T11:51:33;102615.00000000001;;;11.99;41.52
50652;BME280;66928;52.086;5.240;2023-05-02T11:53:10;102603.0;;;11.74;41.05
50652;BME280;66928;52.086;5.240;2023-05-02T11:56:23;102598.0;;;11.93;41.1
50652;BME280;66928;52.086;5.240;2023-05-02T11:58:00;102594.0;;;11.97;41.46
50652;BME280;66928;52.086;5.240;2023-05-02T11:59:48;102596.0;;;12.34;40.78
50652;BME280;66928;52.086;5.240;2023-05-02T12:01:24;102592.0;;;12.35;40.81
50652;BME280;66928;52.086;5.240;2023-05-02T12:04:41;102599.0;;;12.36;41.52
50652;BME280;66928;52.086;5.240;2023-05-02T12:06:18;102606.0;;;12.15;41.48
50652;BME280;66928;52.086;5.240;2023-05-02T12:07:54;102604.0;;;12.22;41.69
50652;BME280;66928;52.086;5.240;2023-05-02T12:09:30;102605.0;;;12.34;40.72
50652;BME280;66928;52.086;5.240;2023-05-02T12:12:43;102608.99999999999;;;12.35;41.23
50652;BME280;66928;52.086;5.240;2023-05-02T12:14:26;102616.00000000001;;;12.25;40.6
50652;BME280;66928;52.086;5.240;2023-05-02T12:16:05;102617.0;;;12.17;40.71
50652;BME280;66928;52.086;5.240;2023-05-02T12:19:23;102622.0;;;12.22;40.83
50652;BME280;66928;52.086;5.240;2023-05-02T12:20:59;102644.0;;;12.19;41.92
50652;BME280;66928;52.086;5.240;2023-05-02T12:22:36;102634.99999999999;;;12.13;43.58
50652;BME280;66928;52.086;5.240;2023-05-02T12:24:13;102617.0;;;11.98;43.61
50652;BME280;66928;52.086;5.240;2023-05-02T12:27:26;102620.0;;;11.92;44.23
50652;BME280;66928;52.086;5.240;2023-05-02T12:29:03;102624.0;;;12.0;44.08
50652;BME280;66928;52.086;5.240;2023-05-02T12:30:39;102627.0;;;12.29;43.65
50652;BME280;66928;52.086;5.240;2023-05-02T12:34:04;102623.0;;;12.2;43.18
50652;BME280;66928;52.086;5.240;2023-05-02T12:35:40;102638.00000000001;;;12.2;43.65
50652;BME280;66928;52.086;5.240;2023-05-02T12:37:21;102633.0;;;12.19;42.83
50652;BME280;66928;52.086;5.240;2023-05-02T12:38:58;102633.99999999999;;;12.33;42.86
50652;BME280;66928;52.086;5.240;2023-05-02T12:42:12;102634.99999999999;;;12.29;42.15
50652;BME280;66928;52.086;5.240;2023-05-02T12:43:50;102642.0;;;12.25;41.46
50652;BME280;66928;52.086;5.240;2023-05-02T12:45:26;102646.0;;;12.06;41.75
50652;BME280;66928;52.086;5.240;2023-05-02T12:48:38;102642.0;;;12.07;42.17
50652;BME280;66928;52.086;5.240;2023-05-02T12:50:14;102647.0;;;11.97;42.04
50652;BME280;66928;52.086;5.240;2023-05-02T12:53:44;102645.0;;;12.08;42.61
50652;BME280;66928;52.086;5.240;2023-05-02T12:56:58;102646.0;;;12.23;42.57
50652;BME280;66928;52.086;5.240;2023-05-02T12:58:43;102643.0;;;12.27;42.87
50652;BME280;66928;52.086;5.240;2023-05-02T13:00:20;102647.0;;;12.19;42.53
50652;BME280;66928;52.086;5.240;2023-05-02T13:01:57;102645.0;;;12.19;42.75
50652;BME280;66928;52.086;5.240;2023-05-02T13:05:13;102646.0;;;12.48;42.06
50652;BME280;66928;52.086;5.240;2023-05-02T13:06:50;102641.00000000001;;;12.39;42.57
50652;BME280;66928;52.086;5.240;2023-05-02T13:08:26;102643.0;;;12.07;43.19
50652;BME280;66928;52.086;5.240;2023-05-02T13:11:39;102646.0;;;12.25;42.75
50652;BME280;66928;52.086;5.240;2023-05-02T13:13:16;102647.0;;;12.16;42.87
50652;BME280;66928;52.086;5.240;2023-05-02T13:14:52;102638.00000000001;;;12.21;42.62
50652;BME280;66928;52.086;5.240;2023-05-02T13:16:28;102634.99999999999;;;12.16;42.95
50652;BME280;66928;52.086;5.240;2023-05-02T13:19:40;102647.0;;;12.12;42.93
50652;BME280;66928;52.086;5.240;2023-05-02T13:21:16;102652.0;;;12.14;42.78
50652;BME280;66928;52.086;5.240;2023-05-02T13:22:53;102646.0;;;12.07;43.07
50652;BME280;66928;52.086;5.240;2023-05-02T13:26:05;102643.0;;;12.21;43.04
50652;BME280;66928;52.086;5.240;2023-05-02T13:27:41;102648.0;;;12.27;43.28
50652;BME280;66928;52.086;5.240;2023-05-02T13:29:17;102639.00000000001;;;12.22;42.75
50652;BME280;66928;52.086;5.240;2023-05-02T13:32:30;102650.0;;;12.19;42.02
50652;BME280;66928;52.086;5.240;2023-05-02T13:34:06;102656.0;;;12.36;41.82
50652;BME280;66928;52.086;5.240;2023-05-02T13:35:42;102654.0;;;12.45;41.71
50652;BME280;66928;52.086;5.240;2023-05-02T13:38:54;102652.0;;;12.63;41.73
50652;BME280;66928;52.086;5.240;2023-05-02T13:40:30;102657.0;;;12.57;41.67
50652;BME280;66928;52.086;5.240;2023-05-02T13:42:07;102656.0;;;12.56;41.64
50652;BME280;66928;52.086;5.240;2023-05-02T13:43:43;102658.0;;;12.57;41.3
50652;BME280;66928;52.086;5.240;2023-05-02T13:46:55;102646.0;;;12.64;41.12
50652;BME280;66928;52.086;5.240;2023-05-02T13:48:31;102649.0;;;12.62;40.93
50652;BME280;66928;52.086;5.240;2023-05-02T13:50:08;102655.0;;;12.68;40.74
50652;BME280;66928;52.086;5.240;2023-05-02T13:53:20;102667.0;;;12.61;41.41
50652;BME280;66928;52.086;5.240;2023-05-02T13:54:56;102665.00000000001;;;12.5;41.75
50652;BME280;66928;52.086;5.240;2023-05-02T13:56:32;102675.0;;;12.43;41.8
50652;BME280;66928;52.086;5.240;2023-05-02T13:59:44;102668.0;;;12.47;42.4
50652;BME280;66928;52.086;5.240;2023-05-02T14:01:21;102668.0;;;12.27;42.29
50652;BME280;66928;52.086;5.240;2023-05-02T14:02:57;102673.0;;;12.44;42.41
50652;BME280;66928;52.086;5.240;2023-05-02T14:04:33;102669.0;;;12.6;41.65
50652;BME280;66928;52.086;5.240;2023-05-02T14:07:45;102659.99999999999;;;12.61;42.23
50652;BME280;66928;52.086;5.240;2023-05-02T14:09:21;102652.0;;;12.64;41.93
50652;BME280;66928;52.086;5.240;2023-05-02T14:10:58;102669.0;;;12.83;42.15
50652;BME280;66928;52.086;5.240;2023-05-02T14:14:10;102674.0;;;12.56;42.78
50652;BME280;66928;52.086;5.240;2023-05-02T14:15:46;102671.0;;;12.69;42.25
50652;BME280;66928;52.086;5.240;2023-05-02T14:17:22;102671.0;;;12.45;42.71
50652;BME280;66928;52.086;5.240;2023-05-02T14:20:35;102679.0;;;12.19;42.96
50652;BME280;66928;52.086;5.240;2023-05-02T14:22:11;102680.0;;;12.09;43.44
50652;BME280;66928;52.086;5.240;2023-05-02T14:23:48;102669.0;;;11.93;44.41
50652;BME280;66928;52.086;5.240;2023-05-02T14:27:00;102672.0;;;11.92;44.5
50652;BME280;66928;52.086;5.240;2023-05-02T14:28:37;102672.0;;;11.97;44.6
50652;BME280;66928;52.086;5.240;2023-05-02T14:30:13;102661.99999999999;;;12.04;44.73
50652;BME280;66928;52.086;5.240;2023-05-02T14:31:49;102671.0;;;12.33;44.6
50652;BME280;66928;52.086;5.240;2023-05-02T14:35:02;102693.0;;;12.22;44.59
50652;BME280;66928;52.086;5.240;2023-05-02T14:36:37;102691.00000000001;;;12.11;44.56
50652;BME280;66928;52.086;5.240;2023-05-02T14:38:14;102673.0;;;12.18;44.5
50652;BME280;66928;52.086;5.240;2023-05-02T14:41:26;102673.0;;;12.28;44.52
50652;BME280;66928;52.086;5.240;2023-05-02T14:43:02;102681.0;;;12.2;44.41
50652;BME280;66928;52.086;5.240;2023-05-02T14:44:38;102681.0;;;12.26;44.47
50652;BME280;66928;52.086;5.240;2023-05-02T14:47:50;102678.0;;;12.35;43.57
50652;BME280;66928;52.086;5.240;2023-05-02T14:49:27;102677.0;;;12.25;44.49
50652;BME280;66928;52.086;5.240;2023-05-02T14:51:03;102675.0;;;12.28;44.62
50652;BME280;66928;52.086;5.240;2023-05-02T14:52:39;102678.0;;;12.15;44.58
50652;BME280;66928;52.086;5.240;2023-05-02T14:55:52;102683.99999999999;;;12.18;44.94
50652;BME280;66928;52.086;5.240;2023-05-02T14:57:28;102680.0;;;12.09;44.4
50652;BME280;66928;52.086;5.240;2023-05-02T14:59:04;102673.0;;;12.14;44.16
50652;BME280;66928;52.086;5.240;2023-05-02T15:02:18;102671.0;;;12.04;44.68
50652;BME280;66928;52.086;5.240;2023-05-02T15:03:54;102675.0;;;12.07;44.86
50652;BME280;66928;52.086;5.240;2023-05-02T15:05:31;102672.0;;;12.0;45.26
50652;BME280;66928;52.086;5.240;2023-05-02T15:08:43;102672.0;;;11.88;45.59
50652;BME280;66928;52.086;5.240;2023-05-02T15:10:19;102670.0;;;11.92;45.46
50652;BME280;66928;52.086;5.240;2023-05-02T15:11:55;102673.0;;;11.98;44.62
50652;BME280;66928;52.086;5.240;2023-05-02T15:15:08;102669.0;;;11.96;44.58
50652;BME280;66928;52.086;5.240;2023-05-02T15:16:45;102672.0;;;12.0;44.6
50652;BME280;66928;52.086;5.240;2023-05-02T15:18:21;102676.0;;;12.08;44.42
50652;BME280;66928;52.086;5.240;2023-05-02T15:19:58;102670.0;;;12.08;44.36
50652;BME280;66928;52.086;5.240;2023-05-02T15:23:10;102670.0;;;12.03;44.13
50652;BME280;66928;52.086;5.240;2023-05-02T15:24:47;102675.0;;;12.11;44.06
50652;BME280;66928;52.086;5.240;2023-05-02T15:26:23;102678.0;;;12.13;43.74
50652;BME280;66928;52.086;5.240;2023-05-02T15:29:36;102666.00000000001;;;12.05;43.8
50652;BME280;66928;52.086;5.240;2023-05-02T15:31:12;102667.0;;;12.18;43.85
50652;BME280;66928;52.086;5.240;2023-05-02T15:32:48;102683.99999999999;;;12.15;43.66
50652;BME280;66928;52.086;5.240;2023-05-02T15:36:02;102676.0;;;12.03;43.06
50652;BME280;66928;52.086;5.240;2023-05-02T15:37:38;102683.99999999999;;;12.15;43.1
50652;BME280;66928;52.086;5.240;2023-05-02T15:39:14;102675.0;;;11.95;43.75
50652;BME280;66928;52.086;5.240;2023-05-02T15:40:54;102674.0;;;12.03;43.0
50652;BME280;66928;52.086;5.240;2023-05-02T15:44:09;102680.0;;;12.06;42.5
50652;BME280;66928;52.086;5.240;2023-05-02T15:45:49;102674.0;;;12.06;43.01
50652;BME280;66928;52.086;5.240;2023-05-02T15:47:26;102681.0;;;12.12;42.79
50652;BME280;66928;52.086;5.240;2023-05-02T15:50:38;102682.0;;;12.1;42.83
50652;BME280;66928;52.086;5.240;2023-05-02T15:52:14;102683.0;;;12.08;42.31
50652;BME280;66928;52.086;5.240;2023-05-02T15:53:50;102684.99999999999;;;11.92;42.45
50652;BME280;66928;52.086;5.240;2023-05-02T15:55:28;102680.0;;;11.99;42.46
50652;BME280;66928;52.086;5.240;2023-05-02T15:58:41;102689.00000000001;;;11.97;42.35
50652;BME280;66928;52.086;5.240;2023-05-02T16:00:17;102690.00000000001;;;11.87;42.46
50652;BME280;66928;52.086;5.240;2023-05-02T16:01:53;102691.00000000001;;;11.79;42.36
50652;BME280;66928;52.086;5.240;2023-05-02T16:05:07;102707.0;;;11.88;42.66
50652;BME280;66928;52.086;5.240;2023-05-02T16:06:43;102700.0;;;11.78;42.52
50652;BME280;66928;52.086;5.240;2023-05-02T16:08:19;102702.0;;;11.69;41.83
50652;BME280;66928;52.086;5.240;2023-05-02T16:11:31;102705.0;;;11.74;41.8
50652;BME280;66928;52.086;5.240;2023-05-02T16:13:07;102702.0;;;11.73;41.85
50652;BME280;66928;52.086;5.240;2023-05-02T16:14:43;102705.0;;;11.84;41.77
50652;BME280;66928;52.086;5.240;2023-05-02T16:16:20;102705.0;;;11.9;41.83
50652;BME280;66928;52.086;5.240;2023-05-02T16:19:32;102713.00000000001;;;11.78;41.55
50652;BME280;66928;52.086;5.240;2023-05-02T16:21:08;102707.0;;;11.75;41.54